Time;durP1;ratioP1;P1;durP2;ratioP2;P2;SDS_P1;SDS_P2;PMS_P1;PMS_P2;Temp;Humidity;BMP_temperature;BMP_pressure;BME280_temperature;BME280_humidity;BME280_pressure;Samples;Min_cycle;Max_cycle;Signal;HPM_P1;HPM_P2
2022/06/29 00:02:53;;;;;;;8.65;7.85;;;;;;;15.61;100.00;96769.16;10455548;28;20249;-54
2022/06/29 00:07:54;;;;;;;8.65;7.00;;;;;;;15.67;100.00;96761.28;10455143;28;20261;-54
2022/06/29 00:12:54;;;;;;;8.25;7.20;;;;;;;15.68;100.00;96755.00;10455187;28;20192;-51
2022/06/29 00:17:55;;;;;;;8.65;7.75;;;;;;;15.58;100.00;96766.88;10453907;28;20230;-52
2022/06/29 00:22:55;;;;;;;7.53;6.82;;;;;;;15.43;100.00;96772.19;10454921;28;20187;-54
2022/06/29 00:27:55;;;;;;;9.68;7.38;;;;;;;15.46;100.00;96774.47;10454436;28;20273;-51
2022/06/29 00:32:57;;;;;;;8.63;7.43;;;;;;;15.55;100.00;96768.06;10453630;28;20289;-54
2022/06/29 00:37:57;;;;;;;9.52;7.85;;;;;;;15.70;100.00;96771.47;10452162;28;20306;-55
2022/06/29 00:42:58;;;;;;;9.15;8.05;;;;;;;15.71;100.00;96777.56;10453987;28;20203;-51
2022/06/29 00:47:58;;;;;;;8.93;7.90;;;;;;;15.81;100.00;96779.94;10453305;28;20239;-55
2022/06/29 00:53:03;;;;;;;8.80;7.43;;;;;;;15.77;100.00;96773.38;10453936;28;20322;-52
2022/06/29 00:58:07;;;;;;;10.77;8.05;;;;;;;15.86;100.00;96772.28;10453034;28;20228;-53
2022/06/29 01:03:08;;;;;;;9.82;7.63;;;;;;;16.00;100.00;96767.91;10453303;28;20184;-53
2022/06/29 01:08:08;;;;;;;7.00;6.30;;;;;;;16.13;100.00;96788.38;10452974;28;20705;-53
2022/06/29 01:13:10;;;;;;;10.27;8.10;;;;;;;15.99;100.00;96782.97;10452946;28;20195;-52
2022/06/29 01:18:11;;;;;;;10.10;8.65;;;;;;;16.13;100.00;96786.56;10452924;28;20269;-52
2022/06/29 01:23:11;;;;;;;12.85;8.30;;;;;;;15.88;100.00;96788.78;10452594;28;20258;-51
2022/06/29 01:28:13;;;;;;;9.57;8.07;;;;;;;15.69;100.00;96784.88;10452454;28;20725;-58
2022/06/29 01:33:13;;;;;;;16.25;9.95;;;;;;;15.57;100.00;96781.88;10452020;28;20611;-57
2022/06/29 01:38:14;;;;;;;12.52;11.05;;;;;;;15.60;100.00;96773.59;10452134;28;20289;-52
2022/06/29 01:43:14;;;;;;;14.50;12.32;;;;;;;15.54;100.00;96779.63;10453137;28;20188;-56
2022/06/29 01:48:15;;;;;;;14.23;12.02;;;;;;;15.46;100.00;96769.19;10451738;28;20306;-53
2022/06/29 01:53:15;;;;;;;14.50;12.32;;;;;;;15.54;100.00;96766.41;10452426;28;20188;-55
2022/06/29 01:58:16;;;;;;;14.35;11.48;;;;;;;15.66;100.00;96764.13;10451649;28;20219;-55
2022/06/29 02:03:16;;;;;;;14.38;10.75;;;;;;;15.65;100.00;96759.81;10452054;28;20196;-54
2022/06/29 02:08:16;;;;;;;12.27;10.93;;;;;;;15.58;100.00;96757.13;10451917;28;20295;-58
2022/06/29 02:13:17;;;;;;;13.82;12.32;;;;;;;15.52;100.00;96742.03;10451690;28;20203;-52
2022/06/29 02:18:17;;;;;;;14.52;12.30;;;;;;;15.51;100.00;96743.03;10451709;28;20302;-56
2022/06/29 02:23:18;;;;;;;16.00;13.38;;;;;;;15.43;100.00;96745.78;10452792;28;20192;-55
2022/06/29 02:28:18;;;;;;;16.92;12.80;;;;;;;15.43;100.00;96738.69;10455502;28;20686;-52
2022/06/29 02:38:37;;;;;;;15.35;13.75;;;;;;;15.48;100.00;96730.19;10453231;28;20627;-52
2022/06/29 02:43:38;;;;;;;17.25;13.38;;;;;;;15.46;100.00;96734.84;10458625;28;20188;-54
2022/06/29 02:48:38;;;;;;;17.63;12.10;;;;;;;15.58;100.00;96751.84;10458018;28;20289;-52
2022/06/29 02:53:39;;;;;;;14.98;13.15;;;;;;;15.59;100.00;96744.72;10458363;28;20188;-52
2022/06/29 02:58:39;;;;;;;13.98;12.52;;;;;;;15.57;100.00;96747.56;10457715;28;20227;-51
2022/06/29 03:03:39;;;;;;;16.33;13.75;;;;;;;15.52;100.00;96739.41;10457955;28;20557;-51
2022/06/29 03:08:40;;;;;;;16.83;13.55;;;;;;;15.52;100.00;96752.59;10457706;28;20589;-50
2022/06/29 03:13:40;;;;;;;14.50;12.95;;;;;;;15.51;100.00;96757.06;10457314;28;20195;-51
2022/06/29 03:18:40;;;;;;;20.05;14.77;;;;;;;15.32;100.00;96750.53;10457075;28;20228;-50
2022/06/29 03:23:41;;;;;;;25.75;17.35;;;;;;;15.27;100.00;96752.94;10456925;28;20337;-50
2022/06/29 03:28:41;;;;;;;18.30;16.13;;;;;;;15.34;100.00;96748.56;10456798;28;20211;-50
2022/06/29 03:33:42;;;;;;;16.38;14.68;;;;;;;15.51;100.00;96732.47;10456319;28;20560;-52
2022/06/29 03:38:42;;;;;;;15.50;13.77;;;;;;;15.53;100.00;96725.19;10456019;28;20648;-50
2022/06/29 03:43:42;;;;;;;15.43;13.85;;;;;;;15.60;100.00;96725.25;10456397;28;20570;-51
2022/06/29 03:48:43;;;;;;;19.80;13.27;;;;;;;15.60;100.00;96725.25;10455372;28;20639;-50
2022/06/29 03:53:43;;;;;;;17.45;13.13;;;;;;;15.60;100.00;96731.34;10455014;28;20215;-51
2022/06/29 03:58:44;;;;;;;16.60;13.80;;;;;;;15.65;100.00;96726.34;10455646;28;20729;-50
2022/06/29 04:03:44;;;;;;;15.10;13.55;;;;;;;15.70;100.00;96709.91;10455352;28;20727;-50
2022/06/29 04:08:44;;;;;;;15.88;14.02;;;;;;;15.81;100.00;96709.44;10455432;28;20737;-50
2022/06/29 04:13:45;;;;;;;16.67;13.48;;;;;;;15.89;100.00;96715.59;10454856;28;20740;-51
2022/06/29 04:18:45;;;;;;;15.93;13.38;;;;;;;15.92;100.00;96697.53;10454926;28;20728;-50
2022/06/29 04:23:45;;;;;;;17.10;15.18;;;;;;;15.99;100.00;96693.13;10454769;28;20745;-53
2022/06/29 04:28:46;;;;;;;16.45;14.75;;;;;;;16.01;100.00;96696.38;10454230;28;20204;-51
2022/06/29 04:33:46;;;;;;;18.45;15.85;;;;;;;16.22;100.00;96707.94;10453953;28;20207;-51
2022/06/29 04:38:46;;;;;;;17.13;15.32;;;;;;;16.23;100.00;96701.63;10453590;28;20232;-52
2022/06/29 04:43:47;;;;;;;22.35;17.30;;;;;;;16.33;100.00;96688.91;10454167;28;20200;-51
2022/06/29 04:48:56;;;;;;;21.27;16.83;;;;;;;16.43;100.00;96693.81;10453416;28;20330;-53
2022/06/29 04:53:56;;;;;;;21.38;16.58;;;;;;;16.77;100.00;96698.31;10453540;28;20200;-51
2022/06/29 04:58:58;;;;;;;16.33;14.35;;;;;;;16.86;100.00;96706.94;10453339;28;20224;-56
2022/06/29 05:03:59;;;;;;;18.20;13.52;;;;;;;16.77;100.00;96702.78;10452579;28;20249;-53
2022/06/29 05:09:00;;;;;;;14.48;12.77;;;;;;;16.92;100.00;96708.78;10453238;28;20318;-55
2022/06/29 05:14:00;;;;;;;16.48;13.90;;;;;;;17.03;100.00;96703.94;10452791;28;20206;-51
2022/06/29 05:19:00;;;;;;;15.18;13.18;;;;;;;16.96;100.00;96695.97;10452742;28;20306;-53
2022/06/29 05:24:01;;;;;;;15.45;13.80;;;;;;;16.98;100.00;96688.66;10453005;28;20196;-52
2022/06/29 05:29:01;;;;;;;15.38;13.68;;;;;;;16.98;100.00;96698.44;10452333;28;20213;-56
2022/06/29 05:34:01;;;;;;;19.95;13.27;;;;;;;17.15;100.00;96693.59;10452860;28;20180;-57
2022/06/29 05:39:02;;;;;;;18.65;14.05;;;;;;;17.09;100.00;96684.63;10452104;28;20227;-57
2022/06/29 05:44:04;;;;;;;16.52;14.95;;;;;;;16.88;100.00;96677.63;10452514;28;20183;-57
2022/06/29 05:49:04;;;;;;;22.52;15.88;;;;;;;16.88;100.00;96682.94;10452034;28;20232;-58
2022/06/29 05:54:05;;;;;;;16.65;14.80;;;;;;;17.01;100.00;96690.09;10452076;28;20257;-57
2022/06/29 05:59:06;;;;;;;18.00;15.10;;;;;;;16.87;100.00;96681.28;10452119;28;20231;-59
2022/06/29 06:04:06;;;;;;;21.08;15.90;;;;;;;16.95;100.00;96689.03;10451744;28;20259;-54
2022/06/29 06:09:07;;;;;;;20.02;15.18;;;;;;;17.03;100.00;96691.53;10451898;28;20214;-58
2022/06/29 06:14:07;;;;;;;26.40;15.27;;;;;;;17.09;100.00;96689.91;10454570;28;20200;-58
2022/06/29 06:19:07;;;;;;;16.63;14.10;;;;;;;17.03;100.00;96703.94;10459490;28;20208;-57
2022/06/29 06:24:08;;;;;;;19.77;16.17;;;;;;;17.02;100.00;96705.78;10459496;28;20202;-53
2022/06/29 06:29:08;;;;;;;19.08;17.08;;;;;;;16.98;100.00;96715.13;10458967;28;20212;-58
2022/06/29 06:34:09;;;;;;;23.25;18.67;;;;;;;16.96;100.00;96722.44;10458819;28;20250;-53
2022/06/29 06:39:09;;;;;;;22.65;18.02;;;;;;;17.07;100.00;96732.47;10458681;28;20234;-58
2022/06/29 06:44:09;;;;;;;20.27;18.17;;;;;;;17.27;100.00;96718.50;10458752;28;20625;-53
2022/06/29 06:49:10;;;;;;;18.77;16.88;;;;;;;17.45;100.00;96702.84;10458189;28;20604;-59
2022/06/29 06:54:10;;;;;;;23.42;18.77;;;;;;;17.32;100.00;96691.41;10458277;28;20279;-54
2022/06/29 06:59:11;;;;;;;23.10;20.35;;;;;;;17.39;100.00;96690.41;10457939;28;20232;-58
2022/06/29 07:04:11;;;;;;;29.58;21.17;;;;;;;17.58;100.00;96683.53;10457914;28;20191;-57
2022/06/29 07:09:12;;;;;;;27.20;20.92;;;;;;;17.61;100.00;96679.66;10457458;28;20212;-58
2022/06/29 07:14:12;;;;;;;25.27;20.90;;;;;;;17.75;100.00;96686.63;10457522;28;20203;-59
2022/06/29 07:19:12;;;;;;;28.17;22.27;;;;;;;17.72;100.00;96684.38;10456926;28;20667;-57
2022/06/29 07:24:13;;;;;;;26.52;21.60;;;;;;;17.69;100.00;96686.59;10456823;28;20554;-56
2022/06/29 07:29:13;;;;;;;23.77;21.13;;;;;;;17.81;100.00;96685.81;10456764;28;20212;-56
2022/06/29 07:34:14;;;;;;;23.40;20.98;;;;;;;17.89;100.00;96687.47;10455953;28;20210;-54
2022/06/29 07:39:14;;;;;;;21.90;19.55;;;;;;;18.01;100.00;96674.44;10456497;28;20219;-55
2022/06/29 07:44:14;;;;;;;21.20;19.08;;;;;;;18.03;100.00;96685.63;10456142;28;20211;-53
2022/06/29 07:49:15;;;;;;;24.70;22.00;;;;;;;18.08;100.00;96677.06;10455984;28;20240;-53
2022/06/29 07:54:15;;;;;;;25.05;21.65;;;;;;;18.25;100.00;96694.16;10455964;28;20274;-58
2022/06/29 07:59:15;;;;;;;25.38;19.65;;;;;;;18.27;100.00;96699.25;10455280;28;20234;-57
2022/06/29 08:04:16;;;;;;;29.92;23.27;;;;;;;18.21;100.00;96689.47;10455681;28;20658;-57
2022/06/29 08:09:16;;;;;;;24.15;21.00;;;;;;;18.53;100.00;96682.53;10454780;28;20709;-53
2022/06/29 08:14:17;;;;;;;23.75;20.88;;;;;;;18.46;100.00;96689.66;10455224;28;20749;-58
2022/06/29 08:19:17;;;;;;;26.63;21.00;;;;;;;18.91;100.00;96699.56;10454545;28;20673;-58
2022/06/29 08:24:18;;;;;;;23.52;18.13;;;;;;;19.25;100.00;96691.25;10454646;28;20621;-58
2022/06/29 08:29:18;;;;;;;23.20;18.88;;;;;;;19.50;100.00;96681.75;10454587;28;20604;-56
2022/06/29 08:34:24;;;;;;;24.88;20.88;;;;;;;19.55;100.00;96687.22;10453632;28;20580;-57
2022/06/29 08:39:25;;;;;;;22.08;18.98;;;;;;;19.68;100.00;96683.63;10453814;28;20216;-57
2022/06/29 08:44:25;;;;;;;23.98;19.73;;;;;;;19.87;100.00;96677.41;10453752;28;20195;-55
2022/06/29 08:49:26;;;;;;;20.98;18.63;;;;;;;20.34;100.00;96666.38;10455672;23;20765;-59
2022/06/29 08:54:27;;;;;;;22.33;19.35;;;;;;;20.44;100.00;96660.53;10369912;28;20255;-62
2022/06/29 08:59:27;;;;;;;21.75;19.23;;;;;;;20.51;100.00;96663.94;10370690;28;20257;-62
2022/06/29 09:04:28;;;;;;;18.70;16.80;;;;;;;21.26;100.00;96662.06;10370647;28;20186;-61
2022/06/29 09:09:28;;;;;;;19.65;17.58;;;;;;;21.38;100.00;96666.41;10370234;28;20211;-61
2022/06/29 09:14:28;;;;;;;22.80;18.88;;;;;;;21.23;100.00;96667.84;10351512;28;20193;-59
2022/06/29 09:19:35;;;;;;;19.25;17.25;;;;;;;20.99;100.00;96667.72;10369940;28;20232;-61
2022/06/29 09:24:36;;;;;;;18.27;16.38;;;;;;;20.90;100.00;96669.88;10370179;28;20199;-60
2022/06/29 09:29:47;;;;;;;19.38;17.35;;;;;;;20.68;100.00;96672.19;10369888;28;20209;-60
2022/06/29 09:34:49;;;;;;;17.70;15.90;;;;;;;20.91;100.00;96666.19;10369728;28;20200;-60
2022/06/29 09:39:50;;;;;;;23.23;18.08;;;;;;;20.82;100.00;96665.66;10369517;28;20248;-60
2022/06/29 09:44:51;;;;;;;24.92;18.08;;;;;;;20.79;100.00;96670.63;10369982;28;20733;-60
2022/06/29 09:50:01;;;;;;;17.83;15.95;;;;;;;20.88;100.00;96658.66;10375149;28;20260;-61
2022/06/29 09:55:01;;;;;;;19.13;17.08;;;;;;;20.92;100.00;96646.53;10377733;28;20697;-61
2022/06/29 10:05:54;;;;;;;19.80;15.23;;;;;;;21.53;100.00;96652.69;10377635;28;20193;-60
2022/06/29 10:10:54;;;;;;;16.05;14.38;;;;;;;21.42;100.00;96655.28;10377062;28;20220;-60
2022/06/29 10:16:00;;;;;;;19.08;15.15;;;;;;;21.43;100.00;96646.25;10376125;28;20224;-56
2022/06/29 10:21:00;;;;;;;15.85;14.23;;;;;;;21.28;100.00;96663.44;10377381;28;20730;-59
2022/06/29 10:26:01;;;;;;;15.10;13.50;;;;;;;21.19;100.00;96656.81;10375658;28;20232;-61
2022/06/29 10:31:01;;;;;;;22.67;19.85;;;;;;;21.23;100.00;96636.69;10376602;28;20754;-61
2022/06/29 10:36:06;;;;;;;16.73;14.00;;;;;;;21.66;100.00;96621.53;10358898;28;20307;-59
2022/06/29 10:43:07;;;;;;;14.10;12.65;;;;;;;21.84;100.00;96634.78;10376288;28;20217;-60
2022/06/29 10:46:56;;;;;;;12.88;11.52;;;;;;;21.72;100.00;96644.63;10375907;28;20186;-58
2022/06/29 10:51:57;;;;;;;12.75;11.25;;;;;;;22.20;100.00;96642.78;10375833;28;20676;-61
2022/06/29 10:56:58;;;;;;;13.52;12.23;;;;;;;22.41;100.00;96628.88;10374321;28;20225;-58
2022/06/29 11:02:09;;;;;;;18.23;14.38;;;;;;;22.42;100.00;96633.19;10357566;28;20228;-61
2022/06/29 11:12:30;;;;;;;10.80;9.73;;;;;;;22.17;100.00;96643.25;10375259;28;20209;-58
2022/06/29 11:17:44;;;;;;;12.80;10.43;;;;;;;21.79;100.00;96637.34;10374802;28;20217;-59
2022/06/29 11:22:54;;;;;;;11.95;10.63;;;;;;;21.26;100.00;96633.56;10374749;28;20264;-61
2022/06/29 11:27:54;;;;;;;12.52;11.27;;;;;;;21.46;100.00;96635.16;10374590;28;20585;-58
2022/06/29 11:32:54;;;;;;;12.98;11.68;;;;;;;20.83;100.00;96637.22;10374404;28;20240;-59
2022/06/29 11:38:01;;;;;;;14.85;12.02;;;;;;;21.22;100.00;96627.06;10374140;28;20213;-57
2022/06/29 11:43:28;;;;;;;14.75;12.25;;;;;;;20.96;100.00;96623.72;10373697;28;20232;-60
2022/06/29 11:48:29;;;;;;;12.98;11.73;;;;;;;21.19;100.00;96619.53;10369616;28;20706;-61
2022/06/29 11:53:43;;;;;;;18.38;13.68;;;;;;;21.17;100.00;96618.94;10373309;28;20582;-59
2022/06/29 11:58:49;;;;;;;15.45;13.73;;;;;;;21.23;100.00;96614.56;10373565;28;20232;-59
2022/06/29 12:03:57;;;;;;;16.50;13.00;;;;;;;21.26;100.00;96598.94;10373022;28;20775;-60
2022/06/29 12:08:58;;;;;;;14.45;12.15;;;;;;;21.57;100.00;96615.72;10372953;28;20189;-61
2022/06/29 12:13:58;;;;;;;13.38;10.98;;;;;;;21.61;100.00;96600.06;10371715;28;20217;-62
2022/06/29 12:18:58;;;;;;;12.20;10.98;;;;;;;21.92;100.00;96604.28;10372597;28;20440;-62
2022/06/29 12:23:59;;;;;;;13.35;11.77;;;;;;;21.90;100.00;96603.72;10372516;28;20213;-60
2022/06/29 12:28:59;;;;;;;14.35;11.18;;;;;;;22.36;100.00;96596.75;10371868;28;20241;-62
2022/06/29 12:34:07;;;;;;;14.82;12.20;;;;;;;22.31;100.00;96591.28;10487745;28;20638;-61
2022/06/29 12:39:08;;;;;;;20.55;13.07;;;;;;;22.40;100.00;96571.22;10488185;28;20265;-62
2022/06/29 12:44:09;;;;;;;13.55;11.45;;;;;;;22.12;100.00;96563.13;10488143;28;20268;-62
2022/06/29 12:49:10;;;;;;;14.52;11.48;;;;;;;22.13;100.00;96546.03;10487900;28;20669;-61
2022/06/29 12:54:10;;;;;;;12.60;10.02;;;;;;;22.32;100.00;96536.88;10487733;28;20223;-61
2022/06/29 12:59:10;;;;;;;12.02;9.48;;;;;;;22.24;100.00;96532.69;10487496;28;20249;-62
2022/06/29 13:04:11;;;;;;;11.65;10.45;;;;;;;22.22;100.00;96547.28;10487118;28;20215;-62
2022/06/29 13:09:11;;;;;;;11.98;10.77;;;;;;;21.42;100.00;96535.34;10486907;28;20275;-62
2022/06/29 13:14:12;;;;;;;13.48;11.60;;;;;;;21.41;100.00;96537.22;10486902;28;20222;-60
2022/06/29 13:19:12;;;;;;;11.45;10.30;;;;;;;22.22;100.00;96528.63;10486612;28;20278;-61
2022/06/29 13:24:13;;;;;;;13.18;9.93;;;;;;;22.44;100.00;96529.66;10486541;28;20207;-61
2022/06/29 13:29:13;;;;;;;10.38;8.88;;;;;;;22.70;100.00;96516.00;10485856;28;20199;-61
2022/06/29 13:34:13;;;;;;;12.05;9.68;;;;;;;22.62;100.00;96501.16;10485602;28;20597;-61
2022/06/29 13:39:14;;;;;;;14.38;12.95;;;;;;;21.76;100.00;96515.13;10485760;28;20278;-61
2022/06/29 13:44:14;;;;;;;16.90;14.43;;;;;;;21.38;100.00;96517.16;10464963;28;20184;-60
2022/06/29 13:49:15;;;;;;;16.00;14.35;;;;;;;21.31;100.00;96520.97;10458107;28;20199;-60
2022/06/29 13:54:15;;;;;;;21.92;18.17;;;;;;;20.79;100.00;96513.56;10457769;28;20203;-60
2022/06/29 13:59:15;;;;;;;19.58;17.67;;;;;;;20.74;100.00;96518.75;10457705;28;20279;-60
2022/06/29 14:04:16;;;;;;;19.90;17.92;;;;;;;20.62;100.00;96518.66;10457344;28;20206;-61
2022/06/29 14:09:16;;;;;;;22.08;19.55;;;;;;;20.54;100.00;96533.09;10457081;28;20192;-61
2022/06/29 14:14:18;;;;;;;19.30;17.45;;;;;;;21.01;100.00;96529.81;10457317;28;20246;-61
2022/06/29 14:19:18;;;;;;;21.25;17.58;;;;;;;21.43;100.00;96529.78;10456594;28;20732;-61
2022/06/29 14:24:18;;;;;;;19.00;15.68;;;;;;;21.61;100.00;96536.91;10456865;28;20199;-61
2022/06/29 14:29:19;;;;;;;16.60;14.68;;;;;;;21.73;100.00;96545.72;10455973;28;20195;-60
2022/06/29 14:34:19;;;;;;;16.65;14.75;;;;;;;21.79;100.00;96541.34;10455834;28;20199;-61
2022/06/29 14:39:19;;;;;;;17.40;15.25;;;;;;;21.96;100.00;96533.44;10456067;28;20212;-60
2022/06/29 14:44:20;;;;;;;15.88;14.25;;;;;;;22.19;100.00;96519.25;10455660;28;20207;-61
2022/06/29 14:49:21;;;;;;;15.05;13.55;;;;;;;22.04;100.00;96519.72;10455725;28;20211;-59
2022/06/29 14:54:21;;;;;;;16.55;14.82;;;;;;;21.65;100.00;96521.25;10439299;22;20323;-60
2022/06/29 14:59:21;;;;;;;17.40;15.68;;;;;;;21.49;100.00;96517.41;10414270;28;20283;-59
2022/06/29 15:04:22;;;;;;;17.58;15.77;;;;;;;21.36;100.00;96507.75;10415929;28;20230;-60
2022/06/29 15:09:22;;;;;;;17.25;15.55;;;;;;;21.34;100.00;96515.19;10413703;28;20211;-61
2022/06/29 15:14:23;;;;;;;19.42;17.40;;;;;;;21.26;100.00;96511.00;10413552;28;20618;-60
2022/06/29 15:19:23;;;;;;;24.05;19.67;;;;;;;21.06;100.00;96498.00;10413495;28;20571;-60
2022/06/29 15:24:26;;;;;;;25.83;21.25;;;;;;;20.83;100.00;96504.09;10413153;28;20576;-60
2022/06/29 15:29:27;;;;;;;31.35;27.67;;;;;;;20.52;100.00;96497.91;10412922;28;20196;-61
2022/06/29 15:39:57;;;;;;;34.33;28.83;;;;;;;19.95;100.00;96499.00;10393093;28;20205;-58
2022/06/29 15:44:57;;;;;;;32.20;28.88;;;;;;;19.86;100.00;96486.22;10412381;28;20570;-57
2022/06/29 15:49:57;;;;;;;36.20;28.25;;;;;;;19.70;100.00;96488.38;10411866;28;20212;-58
2022/06/29 16:00:18;;;;;;;35.83;29.70;;;;;;;19.78;100.00;96485.50;10411800;28;20204;-57
2022/06/29 16:05:19;;;;;;;33.70;26.05;;;;;;;19.87;100.00;96470.03;10411660;28;20189;-59
2022/06/29 16:10:19;;;;;;;31.90;27.45;;;;;;;19.74;100.00;96460.34;10411186;28;20601;-55
2022/06/29 16:15:19;;;;;;;29.60;26.15;;;;;;;19.61;100.00;96455.97;10411745;28;20534;-60
2022/06/29 16:20:20;;;;;;;26.88;23.73;;;;;;;19.69;100.00;96446.06;10411191;28;20299;-58
2022/06/29 16:25:20;;;;;;;27.42;24.52;;;;;;;19.64;100.00;96464.53;10411349;28;20191;-57
2022/06/29 16:30:21;;;;;;;29.73;24.15;;;;;;;19.55;100.00;96454.19;10410984;28;20227;-57
2022/06/29 16:35:21;;;;;;;27.77;23.15;;;;;;;19.61;100.00;96463.94;10409234;28;20192;-57
2022/06/29 16:40:21;;;;;;;26.85;23.95;;;;;;;19.60;100.00;96467.63;10411303;28;20257;-59
2022/06/29 16:45:22;;;;;;;28.15;25.15;;;;;;;19.49;100.00;96460.38;10410762;28;20299;-57
2022/06/29 16:50:22;;;;;;;30.10;24.63;;;;;;;19.61;100.00;96473.75;10410812;28;20271;-56
2022/06/29 16:55:24;;;;;;;29.77;26.30;;;;;;;19.57;100.00;96461.94;10410645;28;20208;-59
2022/06/29 17:00:25;;;;;;;34.05;26.80;;;;;;;19.51;100.00;96455.69;10410778;28;20204;-58
2022/06/29 17:05:25;;;;;;;32.47;27.85;;;;;;;19.33;100.00;96464.41;10410543;28;20541;-57
2022/06/29 17:10:25;;;;;;;45.13;30.35;;;;;;;19.29;100.00;96462.41;10410172;28;20220;-58
2022/06/29 17:15:26;;;;;;;39.30;30.70;;;;;;;19.39;100.00;96468.06;10410611;28;20192;-59
2022/06/29 17:20:27;;;;;;;35.90;29.73;;;;;;;19.31;100.00;96463.84;10417003;28;20220;-57
2022/06/29 17:25:28;;;;;;;42.85;31.40;;;;;;;19.17;100.00;96465.78;10418262;28;20196;-57
2022/06/29 17:30:28;;;;;;;41.20;30.63;;;;;;;19.33;100.00;96469.72;10417048;28;20698;-60
2022/06/29 17:35:29;;;;;;;39.30;30.23;;;;;;;19.34;100.00;96460.75;10417557;28;20203;-59
2022/06/29 17:40:29;;;;;;;40.33;31.33;;;;;;;19.39;100.00;96468.84;10417319;28;20222;-60
2022/06/29 17:45:30;;;;;;;41.70;30.83;;;;;;;19.56;100.00;96463.78;10417042;28;20207;-56
2022/06/29 17:50:30;;;;;;;42.42;33.10;;;;;;;19.43;100.00;96445.31;10416881;28;20286;-59
2022/06/29 17:55:31;;;;;;;39.33;31.95;;;;;;;19.63;100.00;96449.63;10416824;28;20646;-53
2022/06/29 18:00:31;;;;;;;38.20;30.95;;;;;;;19.48;100.00;96434.84;10416729;28;20558;-59
2022/06/29 18:05:32;;;;;;;42.47;32.67;;;;;;;19.41;100.00;96442.06;10416541;28;20283;-59
2022/06/29 18:10:32;;;;;;;43.72;33.97;;;;;;;19.42;100.00;96438.41;10416042;28;20228;-60
2022/06/29 18:15:32;;;;;;;41.88;34.40;;;;;;;19.50;100.00;96438.09;10416545;28;20278;-57
2022/06/29 18:20:33;;;;;;;41.50;34.13;;;;;;;19.36;100.00;96440.06;10415679;28;20208;-58
2022/06/29 18:25:33;;;;;;;51.22;36.97;;;;;;;19.07;100.00;96434.41;10415677;28;20200;-60
2022/06/29 18:30:34;;;;;;;42.97;34.90;;;;;;;18.93;100.00;96453.28;10414718;28;20227;-59
2022/06/29 18:35:34;;;;;;;57.00;38.60;;;;;;;18.93;100.00;96443.50;10415277;28;20269;-60
2022/06/29 18:40:35;;;;;;;50.38;38.40;;;;;;;18.91;100.00;96458.00;10415029;28;20215;-57
2022/06/29 18:45:35;;;;;;;48.85;35.63;;;;;;;18.99;100.00;96458.56;10414911;28;20188;-57
2022/06/29 18:50:36;;;;;;;52.58;37.75;;;;;;;18.86;100.00;96448.03;10414247;28;20306;-56
2022/06/29 18:55:36;;;;;;;49.80;36.92;;;;;;;18.93;100.00;96442.69;10414753;28;20578;-56
2022/06/29 19:00:37;;;;;;;48.70;37.97;;;;;;;18.99;100.00;96433.84;10414361;28;20303;-54
2022/06/29 19:05:37;;;;;;;46.28;35.58;;;;;;;18.97;100.00;96436.72;10414229;28;20268;-57
2022/06/29 19:10:41;;;;;;;50.10;36.13;;;;;;;18.86;100.00;96434.78;10413830;28;20223;-55
2022/06/29 19:15:42;;;;;;;44.17;35.83;;;;;;;18.75;100.00;96430.16;10413649;28;20192;-57
2022/06/29 19:20:43;;;;;;;56.20;38.90;;;;;;;18.59;100.00;96428.81;10413647;28;20260;-56
2022/06/29 19:25:43;;;;;;;54.05;40.17;;;;;;;18.52;100.00;96434.16;10414083;28;20228;-59
2022/06/29 19:30:44;;;;;;;54.03;39.58;;;;;;;18.59;100.00;96436.75;10412104;28;20315;-59
2022/06/29 19:35:45;;;;;;;53.70;39.53;;;;;;;18.48;100.00;96439.09;10412723;28;20204;-59
2022/06/29 19:40:45;;;;;;;63.35;41.47;;;;;;;18.42;100.00;96439.13;10412059;28;20209;-58
2022/06/29 19:45:45;;;;;;;58.63;39.67;;;;;;;18.47;100.00;96434.00;10412792;28;20275;-58
2022/06/29 19:50:46;;;;;;;66.55;41.80;;;;;;;18.45;100.00;96444.81;10411850;28;20315;-57
2022/06/29 19:55:47;;;;;;;60.78;42.25;;;;;;;18.43;100.00;96444.22;10412367;28;20192;-55
2022/06/29 20:00:47;;;;;;;53.53;38.08;;;;;;;18.52;100.00;96436.81;10411958;28;20651;-55
2022/06/29 20:05:47;;;;;;;72.03;41.90;;;;;;;18.43;100.00;96435.44;10411949;28;20630;-58
2022/06/29 20:10:48;;;;;;;58.15;38.45;;;;;;;18.44;100.00;96440.53;10411909;28;20707;-57
2022/06/29 20:15:48;;;;;;;58.97;39.75;;;;;;;18.50;100.00;96438.88;10411463;28;20626;-58
2022/06/29 20:20:48;;;;;;;59.70;40.80;;;;;;;18.39;100.00;96434.25;10411897;28;20580;-57
2022/06/29 20:25:50;;;;;;;61.95;37.83;;;;;;;18.41;100.00;96432.19;10411285;28;20536;-58
2022/06/29 20:30:50;;;;;;;61.92;36.88;;;;;;;18.45;100.00;96431.56;10411089;28;20650;-59
2022/06/29 20:35:50;;;;;;;51.00;37.22;;;;;;;18.59;100.00;96432.28;10411334;28;20192;-58
2022/06/29 20:40:51;;;;;;;52.85;37.35;;;;;;;18.50;100.00;96413.16;10411124;28;20212;-57
2022/06/29 20:45:51;;;;;;;56.53;38.65;;;;;;;18.54;100.00;96419.66;10411340;28;20655;-56
2022/06/29 20:50:52;;;;;;;52.83;37.10;;;;;;;18.52;100.00;96420.91;10409436;28;20841;-58
2022/06/29 20:55:52;;;;;;;49.63;35.17;;;;;;;18.62;100.00;96404.50;10448617;23;20607;-61
2022/06/29 21:00:52;;;;;;;57.92;38.88;;;;;;;18.53;100.00;96415.38;10419158;28;20603;-61
2022/06/29 21:05:53;;;;;;;48.38;34.50;;;;;;;18.47;100.00;96413.59;10419064;28;20649;-60
2022/06/29 21:10:56;;;;;;;53.65;36.47;;;;;;;18.43;100.00;96428.28;10417374;28;20580;-60
2022/06/29 21:15:57;;;;;;;56.15;36.40;;;;;;;18.52;100.00;96436.81;10418490;28;20224;-61
2022/06/29 21:20:57;;;;;;;60.63;38.08;;;;;;;18.54;100.00;96434.75;10418644;28;20218;-57
2022/06/29 21:25:57;;;;;;;50.90;35.45;;;;;;;18.53;100.00;96451.72;10417959;28;20400;-61
2022/06/29 21:30:58;;;;;;;58.05;40.20;;;;;;;18.43;100.00;96446.84;10417744;28;20296;-61
2022/06/29 21:35:58;;;;;;;66.65;42.28;;;;;;;18.43;100.00;96438.09;10417534;28;20224;-59
2022/06/29 21:40:59;;;;;;;60.42;39.03;;;;;;;18.49;100.00;96427.44;10417789;28;20613;-59
2022/06/29 21:45:59;;;;;;;59.28;40.88;;;;;;;18.49;100.00;96423.97;10417179;28;20600;-60
2022/06/29 21:51:09;;;;;;;58.50;38.50;;;;;;;18.40;100.00;96419.97;10417276;28;20216;-60
2022/06/29 21:56:09;;;;;;;57.50;39.08;;;;;;;18.39;100.00;96418.31;10416936;28;20290;-60
2022/06/29 22:01:10;;;;;;;66.90;42.45;;;;;;;18.39;100.00;96413.03;10416804;28;20216;-61
2022/06/29 22:06:16;;;;;;;69.70;43.55;;;;;;;18.57;100.00;96415.75;10416209;28;20220;-59
2022/06/29 22:11:16;;;;;;;62.38;40.70;;;;;;;18.56;100.00;96430.06;10416389;28;20302;-61
2022/06/29 22:16:17;;;;;;;79.50;45.92;;;;;;;18.33;100.00;96422.63;10416264;28;20203;-59
2022/06/29 22:21:20;;;;;;;74.40;46.35;;;;;;;18.27;100.00;96434.09;10416113;28;20250;-61
2022/06/29 22:26:20;;;;;;;66.68;44.78;;;;;;;18.13;100.00;96443.94;10415898;28;20208;-59
2022/06/29 22:31:21;;;;;;;64.57;42.88;;;;;;;18.36;100.00;96435.47;10415529;28;20564;-61
2022/06/29 22:36:21;;;;;;;59.25;39.97;;;;;;;18.23;100.00;96433.72;10415730;28;20585;-60
2022/06/29 22:41:22;;;;;;;70.57;44.85;;;;;;;18.02;100.00;96426.88;10415909;28;20189;-61
2022/06/29 22:46:22;;;;;;;62.20;41.70;;;;;;;17.97;100.00;96416.09;10415309;28;20197;-56
2022/06/29 22:51:22;;;;;;;70.35;45.13;;;;;;;18.06;100.00;96409.53;10414586;28;20213;-61
2022/06/29 22:56:23;;;;;;;63.55;42.03;;;;;;;18.08;100.00;96404.00;10414952;28;20204;-60
2022/06/29 23:01:23;;;;;;;67.35;41.40;;;;;;;18.13;100.00;96397.06;10414558;28;20674;-60